Time;durP1;ratioP1;P1;durP2;ratioP2;P2;SDS_P1;SDS_P2;PMS_P1;PMS_P2;Temp;Humidity;BMP_temperature;BMP_pressure;BME280_temperature;BME280_humidity;BME280_pressure;Samples;Min_cycle;Max_cycle;Signal;HPM_P1;HPM_P2
2023/01/03 00:02:09;;;;;;;;;20.50;17.50;;;;;10.33;67.72;101826.13;6330742;22;45599;-77
2023/01/03 00:04:35;;;;;;;;;19.50;19.00;;;;;10.57;67.68;101856.34;6328195;22;45985;-78
2023/01/03 00:07:00;;;;;;;;;18.50;17.50;;;;;10.37;67.64;101838.16;6331208;22;45784;-76
2023/01/03 00:09:25;;;;;;;;;21.00;18.00;;;;;10.91;67.69;101916.59;6330795;22;46260;-76
2023/01/03 00:14:39;;;;;;;;;15.75;15.75;;;;;10.70;67.60;101888.00;6306949;22;46092;-75
2023/01/03 00:17:05;;;;;;;;;17.25;14.50;;;;;10.71;67.74;101897.56;6330902;22;46629;-77
2023/01/03 00:19:37;;;;;;;;;17.50;16.50;;;;;10.86;67.76;101928.22;6331290;22;46178;-76
2023/01/03 00:22:04;;;;;;;;;18.00;16.75;;;;;10.84;67.63;101930.94;6331451;22;45872;-77
2023/01/03 00:24:29;;;;;;;;;24.25;21.50;;;;;10.71;67.58;101908.91;6329777;22;45733;-77
2023/01/03 00:26:54;;;;;;;;;18.75;17.50;;;;;10.74;67.79;101915.78;6330603;22;46057;-76
2023/01/03 00:29:20;;;;;;;;;21.25;17.50;;;;;10.81;67.70;101917.97;6330763;22;47035;-77
2023/01/03 00:31:45;;;;;;;;;23.50;22.00;;;;;10.79;67.51;101914.63;6330714;22;45589;-77
2023/01/03 00:34:11;;;;;;;;;19.50;17.25;;;;;10.78;67.78;101922.53;6330600;22;45485;-76
2023/01/03 00:36:37;;;;;;;;;17.00;14.00;;;;;10.75;67.50;101914.81;6302940;22;47565;-76
2023/01/03 00:39:03;;;;;;;;;19.00;15.75;;;;;10.73;68.11;101909.69;6331350;22;46506;-74
2023/01/03 00:41:29;;;;;;;;;17.75;17.25;;;;;10.71;67.85;101919.38;6330741;22;45799;-75
2023/01/03 00:43:55;;;;;;;;;18.25;14.75;;;;;10.64;67.83;101912.75;6301678;22;45821;-77
2023/01/03 00:46:21;;;;;;;;;17.00;14.00;;;;;10.67;67.72;101915.22;6302618;22;46805;-75
2023/01/03 00:48:47;;;;;;;;;17.25;14.25;;;;;10.62;67.74;101905.91;6330445;22;47037;-74
2023/01/03 00:51:35;;;;;;;;;;;;;;;;;;;;;
2023/01/03 00:54:02;;;;;;;;;17.00;15.50;;;;;10.37;67.70;101869.59;6320778;22;68665;-76
2023/01/03 00:56:33;;;;;;;;;15.75;12.50;;;;;10.59;68.01;101917.38;6329966;22;46688;-76
2023/01/03 00:58:59;;;;;;;;;12.75;12.00;;;;;10.47;68.00;101897.88;6330552;22;46966;-75
2023/01/03 01:01:50;;;;;;;;;17.00;13.00;;;;;10.56;67.92;101917.53;6331267;22;46058;-76
2023/01/03 01:04:34;;;;;;;;;11.75;11.00;;;;;10.53;67.83;101915.06;6300357;22;45878;-77
2023/01/03 01:07:02;;;;;;;;;14.50;11.75;;;;;10.42;67.94;101904.25;6330505;22;46370;-74
2023/01/03 01:09:31;;;;;;;;;13.00;12.00;;;;;10.42;67.95;101902.50;6331141;22;46213;-76
2023/01/03 01:11:56;;;;;;;;;16.75;14.00;;;;;10.47;67.95;101910.16;6331057;22;46004;-77
2023/01/03 01:14:25;;;;;;;;;12.25;12.00;;;;;10.44;67.85;101905.88;6330234;22;45454;-75
2023/01/03 01:16:54;;;;;;;;;12.00;11.00;;;;;10.43;68.19;101914.66;6330229;22;46546;-76
2023/01/03 01:19:32;;;;;;;;;11.00;10.75;;;;;10.39;68.25;101913.13;6330606;22;46146;-76
2023/01/03 01:21:58;;;;;;;;;10.00;9.00;;;;;10.32;68.00;101892.53;6330537;22;45869;-75
2023/01/03 01:24:27;;;;;;;;;12.25;11.50;;;;;10.40;68.22;101909.59;6329569;22;45746;-77
2023/01/03 01:26:52;;;;;;;;;12.75;11.25;;;;;10.36;68.34;101910.69;6330458;22;47269;-76
2023/01/03 01:29:18;;;;;;;;;10.25;8.75;;;;;10.38;68.18;101919.28;6303056;22;45959;-77
2023/01/03 01:31:45;;;;;;;;;8.75;8.00;;;;;10.36;68.16;101920.31;6330746;22;45661;-74
2023/01/03 01:34:11;;;;;;;;;11.50;8.50;;;;;10.27;68.32;101911.09;6330029;22;45828;-74
2023/01/03 01:36:38;;;;;;;;;8.75;7.50;;;;;10.23;68.29;101906.09;6302637;22;47634;-75
2023/01/03 01:39:06;;;;;;;;;8.00;7.00;;;;;10.32;68.48;101923.97;6331324;22;46952;-74
2023/01/03 01:44:50;;;;;;;;;9.00;7.50;;;;;10.29;68.51;101917.13;6329210;22;45490;-73
2023/01/03 01:47:29;;;;;;;;;8.75;7.50;;;;;10.28;68.54;101925.91;6330550;22;45920;-76
2023/01/03 01:50:00;;;;;;;;;7.50;7.00;;;;;10.28;68.66;101927.66;6331315;22;46401;-75
2023/01/03 01:52:27;;;;;;;;;9.25;8.50;;;;;10.20;68.51;101916.72;6330220;22;45494;-75
2023/01/03 01:54:53;;;;;;;;;8.75;7.50;;;;;10.26;68.40;101922.50;6329188;22;45648;-75
2023/01/03 01:57:23;;;;;;;;;8.25;7.50;;;;;10.25;68.53;101930.44;6329661;22;46435;-75
2023/01/03 01:59:48;;;;;;;;;8.25;7.25;;;;;10.19;68.58;101923.75;6330545;22;45844;-76
2023/01/03 02:02:18;;;;;;;;;8.00;8.00;;;;;10.25;68.58;101940.94;6329779;22;45656;-75
2023/01/03 02:04:46;;;;;;;;;6.25;5.75;;;;;10.24;68.69;101936.59;6330116;22;45601;-76
2023/01/03 02:07:12;;;;;;;;;9.25;7.75;;;;;10.20;68.64;101929.84;6331959;22;46475;-75
2023/01/03 02:09:37;;;;;;;;;6.50;6.00;;;;;10.18;68.70;101927.28;6332014;22;45846;-75
2023/01/03 02:15:44;;;;;;;;;6.50;6.00;;;;;10.20;68.61;101937.69;6331783;22;46057;-77
2023/01/03 02:18:19;;;;;;;;;6.75;6.75;;;;;10.19;68.83;101939.47;6331983;22;46303;-77
2023/01/03 02:21:12;;;;;;;;;5.25;5.25;;;;;10.18;68.66;101943.00;6331045;22;46073;-77
2023/01/03 02:23:43;;;;;;;;;7.00;4.50;;;;;10.18;68.68;101942.13;6330638;22;45525;-76
2023/01/03 02:26:14;;;;;;;;;5.50;5.50;;;;;10.17;68.88;101943.91;6331024;22;45799;-77
2023/01/03 02:29:04;;;;;;;;;5.25;5.00;;;;;10.17;68.91;101948.28;6331139;22;46997;-77
2023/01/03 02:31:42;;;;;;;;;4.25;4.00;;;;;10.16;68.95;101957.91;6331949;22;46104;-75
2023/01/03 02:34:22;;;;;;;;;8.00;5.00;;;;;10.15;69.01;101953.56;6331170;22;45859;-77
2023/01/03 02:36:50;;;;;;;;;5.25;3.00;;;;;10.14;68.80;101951.88;6303675;22;45993;-77
2023/01/03 02:39:52;;;;;;;;;4.50;4.25;;;;;10.14;68.96;101964.13;6331419;22;45556;-77
2023/01/03 02:43:00;;;;;;;;;3.50;3.00;;;;;10.12;69.36;101953.72;6331036;22;46842;-77
2023/01/03 02:45:58;;;;;;;;;4.25;4.00;;;;;10.09;69.07;101959.13;6331208;22;46090;-77
2023/01/03 02:48:45;;;;;;;;;6.00;5.25;;;;;10.09;69.03;101949.47;6174820;23;45681;-76
2023/01/03 02:51:20;;;;;;;;;5.75;5.00;;;;;10.09;69.20;101941.59;6174602;23;46014;-76
2023/01/03 02:53:49;;;;;;;;;6.50;5.75;;;;;10.08;69.16;101958.25;6173107;23;46182;-76
2023/01/03 02:56:20;;;;;;;;;4.00;4.00;;;;;10.04;69.37;101948.84;6173382;23;45735;-74
2023/01/03 02:59:12;;;;;;;;;2.75;2.75;;;;;10.07;69.54;101950.47;6173814;23;45735;-76
2023/01/03 03:01:43;;;;;;;;;2.50;2.00;;;;;10.00;69.27;101947.28;6174082;23;47081;-74
2023/01/03 03:04:11;;;;;;;;;6.00;5.00;;;;;10.03;69.46;101949.78;6147635;23;47453;-76
2023/01/03 03:07:05;;;;;;;;;3.00;3.00;;;;;9.82;69.47;101922.00;6174597;23;45953;-76
2023/01/03 03:13:11;;;;;;;;;4.00;2.75;;;;;9.63;69.82;101902.81;6148488;23;45605;-76
2023/01/03 03:15:13;;;;;;;;;5.50;3.00;;;;;9.78;69.73;101896.00;6174068;23;46688;-77
2023/01/03 03:17:41;;;;;;;;;3.00;3.00;;;;;10.08;69.94;101944.31;6148418;23;45863;-75
2023/01/03 03:26:03;;;;;;;;;3.25;3.00;;;;;10.02;70.42;101953.31;6327868;22;46037;-75
2023/01/03 03:28:34;;;;;;;;;6.00;2.00;;;;;10.00;70.55;101955.13;6303362;22;45551;-76
2023/01/03 03:31:18;;;;;;;;;2.00;2.00;;;;;9.99;70.58;101953.44;6331967;22;45565;-76
2023/01/03 03:33:55;;;;;;;;;3.75;3.00;;;;;9.97;70.38;101963.16;6302236;22;45915;-76
2023/01/03 03:36:37;;;;;;;;;1.50;1.50;;;;;9.96;70.76;101963.22;6330633;22;46098;-76
2023/01/03 03:44:58;;;;;;;;;3.75;2.00;;;;;9.83;70.61;101942.00;6330712;22;45677;-76
2023/01/03 03:47:52;;;;;;;;;2.25;2.00;;;;;9.93;70.83;101956.34;6331104;22;45824;-76
2023/01/03 03:50:26;;;;;;;;;1.00;0.50;;;;;9.87;70.72;101938.34;6203399;22;45796;-77
2023/01/03 03:52:56;;;;;;;;;6.50;2.00;;;;;9.91;71.34;101955.59;6202575;22;46085;-74
2023/01/03 03:55:31;;;;;;;;;2.00;2.00;;;;;9.93;70.96;101958.13;6178671;22;47515;-77
2023/01/03 03:58:01;;;;;;;;;3.00;3.00;;;;;9.89;70.97;101964.41;6204324;22;46006;-76
2023/01/03 04:00:31;;;;;;;;;5.75;3.00;;;;;9.92;71.30;101961.66;6203714;22;46171;-78
2023/01/03 04:03:00;;;;;;;;;2.25;2.00;;;;;9.91;71.26;101965.19;6202747;22;45736;-76
2023/01/03 04:05:30;;;;;;;;;2.25;2.00;;;;;9.85;71.31;101955.00;6203512;22;47707;-75
2023/01/03 04:07:56;;;;;;;;;2.75;2.75;;;;;9.79;71.60;101958.75;6204286;22;46041;-74
2023/01/03 04:10:22;;;;;;;;;6.25;5.50;;;;;9.74;71.75;101945.03;6204194;22;46016;-77
2023/01/03 04:12:48;;;;;;;;;3.50;3.00;;;;;9.77;71.69;101952.75;6202840;22;45583;-76
2023/01/03 04:15:14;;;;;;;;;5.00;4.00;;;;;9.76;71.86;101953.69;6204184;22;46547;-77
2023/01/03 04:17:40;;;;;;;;;5.75;3.00;;;;;9.71;71.81;101958.28;6204637;22;46478;-75
2023/01/03 04:20:06;;;;;;;;;5.00;3.00;;;;;9.75;71.80;101961.59;6203603;22;45548;-76
2023/01/03 04:22:31;;;;;;;;;6.25;5.25;;;;;9.73;71.77;101963.41;6177221;22;45572;-76
2023/01/03 04:24:56;;;;;;;;;5.00;4.25;;;;;9.71;71.89;101975.75;6202690;22;47366;-77
2023/01/03 04:27:22;;;;;;;;;4.25;2.25;;;;;9.63;71.77;101956.00;6301303;22;46160;-76
2023/01/03 04:29:47;;;;;;;;;7.00;5.00;;;;;9.63;71.79;101961.22;6330727;22;45417;-75
2023/01/03 04:32:12;;;;;;;;;6.25;5.00;;;;;9.67;71.80;101968.03;6330747;22;46006;-77
2023/01/03 04:34:38;;;;;;;;;5.25;5.00;;;;;9.71;72.00;101979.22;6330446;22;45527;-74
2023/01/03 04:37:03;;;;;;;;;7.25;6.00;;;;;9.71;72.08;101989.69;6330807;22;45541;-76
2023/01/03 04:39:29;;;;;;;;;6.00;5.00;;;;;9.61;71.96;101980.53;6330942;22;45495;-77
2023/01/03 04:41:54;;;;;;;;;3.00;3.00;;;;;9.66;71.94;101989.88;6330997;22;45407;-76
2023/01/03 04:44:19;;;;;;;;;5.00;5.00;;;;;9.63;72.21;101986.53;6329480;22;45392;-76
2023/01/03 04:46:45;;;;;;;;;5.00;4.50;;;;;9.56;72.16;101991.19;6331013;22;45501;-76
2023/01/03 04:49:11;;;;;;;;;5.25;5.00;;;;;9.50;72.09;101988.03;6330711;22;45949;-77
2023/01/03 04:51:36;;;;;;;;;6.00;6.00;;;;;9.47;72.15;101985.53;6331220;22;45669;-74
2023/01/03 04:54:03;;;;;;;;;7.25;5.25;;;;;9.45;72.41;101985.59;6329301;22;46007;-76
2023/01/03 04:56:34;;;;;;;;;5.50;5.00;;;;;9.43;72.25;101997.06;6329993;22;46177;-78
2023/01/03 04:59:00;;;;;;;;;5.50;5.00;;;;;9.42;72.50;102000.59;6330923;22;45537;-74
2023/01/03 05:01:27;;;;;;;;;7.75;6.00;;;;;9.44;72.61;102004.84;6331248;22;45705;-74
2023/01/03 05:03:57;;;;;;;;;9.25;6.00;;;;;9.47;72.58;102003.84;6329015;22;46544;-75
2023/01/03 05:06:23;;;;;;;;;6.75;5.00;;;;;9.50;72.39;102008.97;6329886;22;45993;-75
2023/01/03 05:08:49;;;;;;;;;3.00;3.00;;;;;9.53;72.60;102016.66;6330482;22;45708;-76
2023/01/03 05:11:15;;;;;;;;;8.50;5.75;;;;;9.53;72.35;102012.28;6330763;22;45607;-77
2023/01/03 05:13:40;;;;;;;;;15.25;13.50;;;;;9.55;72.41;102017.44;6329590;22;46494;-76
2023/01/03 05:16:10;;;;;;;;;11.25;8.50;;;;;9.52;72.48;102007.97;6330796;22;46813;-75
2023/01/03 05:18:36;;;;;;;;;2.25;2.00;;;;;9.57;72.42;102015.59;6331102;22;45833;-76
2023/01/03 05:26:41;;;;;;;;;5.50;5.25;;;;;9.44;72.36;102006.59;6330443;22;46051;-76
2023/01/03 05:29:08;;;;;;;;;7.50;6.00;;;;;9.45;72.51;101997.81;6302605;22;45811;-76
2023/01/03 05:31:33;;;;;;;;;7.25;5.50;;;;;9.49;72.40;102008.09;6329913;22;45627;-76
2023/01/03 05:33:59;;;;;;;;;3.75;3.00;;;;;9.59;72.06;102019.84;6329585;22;46306;-76
2023/01/03 05:36:25;;;;;;;;;7.25;5.75;;;;;9.51;72.06;102006.25;6329862;22;47081;-74
2023/01/03 05:38:50;;;;;;;;;5.50;4.25;;;;;9.61;72.29;102025.84;6329541;22;45940;-76
2023/01/03 05:41:58;;;;;;;;;5.00;3.00;;;;;9.57;72.17;102016.44;6330464;22;45644;-77
2023/01/03 05:44:01;;;;;;;;;5.75;3.50;;;;;9.47;72.17;102009.94;6328739;22;46161;-78
2023/01/03 05:46:26;;;;;;;;;7.25;5.00;;;;;9.49;72.41;102015.97;6330070;22;45676;-77
2023/01/03 05:48:51;;;;;;;;;7.25;5.00;;;;;9.37;72.28;102011.25;6330005;22;45606;-75
2023/01/03 05:51:17;;;;;;;;;7.50;5.50;;;;;9.39;72.42;102005.97;6330677;22;45697;-77
2023/01/03 05:53:42;;;;;;;;;5.25;3.00;;;;;9.46;72.32;102018.69;6328617;22;47490;-76
2023/01/03 05:56:07;;;;;;;;;7.25;5.00;;;;;9.48;72.30;102026.47;6330259;22;47048;-77
2023/01/03 05:58:33;;;;;;;;;5.75;5.75;;;;;9.49;72.09;102023.81;6330441;22;45549;-75
2023/01/03 06:00:58;;;;;;;;;7.75;6.75;;;;;9.52;72.53;102022.81;6302047;22;46280;-78
2023/01/03 06:03:23;;;;;;;;;6.75;5.25;;;;;9.52;72.36;102009.72;6328909;22;46263;-77
2023/01/03 06:05:49;;;;;;;;;4.75;2.75;;;;;9.57;72.04;102018.22;6330090;22;46108;-76
2023/01/03 06:08:14;;;;;;;;;4.00;3.50;;;;;9.56;72.19;102017.34;6330668;22;45576;-75
2023/01/03 06:10:39;;;;;;;;;5.50;5.50;;;;;9.57;72.15;102023.44;6330595;22;45564;-76
2023/01/03 06:13:05;;;;;;;;;6.00;5.50;;;;;9.55;72.16;102027.91;6329001;22;46022;-76
2023/01/03 06:15:30;;;;;;;;;8.25;5.50;;;;;9.51;72.21;102019.34;6329831;22;46076;-74
2023/01/03 06:18:01;;;;;;;;;5.50;5.50;;;;;9.51;72.01;102032.41;6330267;22;45562;-75
2023/01/03 06:20:27;;;;;;;;;5.00;3.00;;;;;9.45;72.17;102018.75;6331320;22;45643;-77
2023/01/03 06:22:53;;;;;;;;;5.00;5.00;;;;;9.52;72.05;102030.66;6329013;22;47215;-76
2023/01/03 06:25:18;;;;;;;;;5.00;5.00;;;;;9.53;72.30;102027.13;6329226;22;46245;-77
2023/01/03 06:27:44;;;;;;;;;5.50;4.00;;;;;9.54;72.10;102034.06;6301397;22;45578;-76
2023/01/03 06:30:10;;;;;;;;;6.00;5.00;;;;;9.54;72.00;102040.16;6330900;22;45569;-76
2023/01/03 06:32:35;;;;;;;;;6.00;5.00;;;;;9.48;71.76;102029.09;6328383;22;46566;-78
2023/01/03 06:35:00;;;;;;;;;4.00;3.50;;;;;9.52;72.03;102060.28;6329329;22;45892;-76
2023/01/03 06:37:26;;;;;;;;;6.50;5.00;;;;;9.49;72.13;102044.72;6330105;22;45489;-75
2023/01/03 06:39:51;;;;;;;;;6.75;3.50;;;;;9.46;72.18;102054.47;6301300;22;45797;-77
2023/01/03 06:53:15;;;;;;;;;6.00;5.25;;;;;9.39;72.37;102047.81;6334644;22;45484;-72
2023/01/03 06:55:42;;;;;;;;;6.75;6.25;;;;;9.37;72.43;102054.88;6334341;22;46579;-73
2023/01/03 06:58:08;;;;;;;;;6.75;6.25;;;;;9.41;71.94;102059.88;6334168;22;45462;-73
2023/01/03 07:00:36;;;;;;;;;6.00;4.50;;;;;9.43;72.05;102065.06;6335236;22;45426;-75
2023/01/03 07:03:02;;;;;;;;;6.75;3.50;;;;;9.46;72.22;102067.53;6334419;22;46710;-71
2023/01/03 07:05:27;;;;;;;;;5.25;5.00;;;;;9.43;72.20;102052.84;6334860;22;45631;-73
2023/01/03 07:07:52;;;;;;;;;8.00;6.75;;;;;9.48;71.98;102066.56;6334401;22;45608;-74
2023/01/03 07:10:18;;;;;;;;;7.25;5.50;;;;;9.47;71.84;102062.25;6332963;22;45911;-73
2023/01/03 07:15:26;;;;;;;;;4.75;4.75;;;;;9.53;72.04;102068.97;6334666;22;46101;-72
2023/01/03 07:17:54;;;;;;;;;6.50;6.50;;;;;9.51;71.93;102066.41;6334688;22;45559;-72
2023/01/03 07:20:19;;;;;;;;;4.75;4.50;;;;;9.54;72.21;102071.53;6334019;22;45874;-73
2023/01/03 07:22:44;;;;;;;;;6.50;6.50;;;;;9.52;72.02;102072.50;6333027;22;46682;-74
2023/01/03 07:25:10;;;;;;;;;6.25;5.00;;;;;9.49;72.17;102072.66;6333577;22;46131;-73
2023/01/03 07:27:35;;;;;;;;;8.75;6.25;;;;;9.56;71.99;102088.00;6334507;22;45470;-73
2023/01/03 07:30:01;;;;;;;;;10.25;7.00;;;;;9.57;71.85;102084.47;6334690;22;45366;-74
2023/01/03 07:32:26;;;;;;;;;6.50;6.00;;;;;9.57;72.41;102081.84;6305112;22;47289;-73
2023/01/03 07:34:51;;;;;;;;;6.75;6.00;;;;;9.56;72.00;102089.75;6333287;22;46251;-73
2023/01/03 07:37:19;;;;;;;;;6.25;6.25;;;;;9.60;72.12;102091.34;6307018;22;45526;-74
2023/01/03 07:39:44;;;;;;;;;10.00;7.00;;;;;9.54;72.28;102082.00;6334220;22;45450;-76
2023/01/03 07:44:53;;;;;;;;;7.25;6.75;;;;;9.63;71.91;102089.44;6334588;22;45670;-73
2023/01/03 07:47:19;;;;;;;;;8.75;7.00;;;;;9.59;72.22;102080.03;6334050;22;45544;-72
2023/01/03 07:49:44;;;;;;;;;7.50;5.00;;;;;9.65;72.03;102095.47;6335432;22;45509;-74
2023/01/03 07:52:09;;;;;;;;;7.00;6.00;;;;;9.67;72.22;102095.38;6335750;22;46552;-74
2023/01/03 07:54:35;;;;;;;;;8.75;7.00;;;;;9.67;71.83;102104.09;6335594;22;46086;-73
2023/01/03 07:57:00;;;;;;;;;5.25;5.25;;;;;9.70;71.61;102108.34;6335228;22;45525;-74
2023/01/03 07:59:26;;;;;;;;;6.00;6.00;;;;;9.65;71.79;102100.72;6335118;22;45687;-72
2023/01/03 08:01:51;;;;;;;;;5.00;4.25;;;;;9.74;71.90;102109.91;6334024;22;46179;-77
2023/01/03 08:04:17;;;;;;;;;9.25;6.75;;;;;9.74;71.95;102109.91;6334614;22;45586;-74
2023/01/03 08:06:42;;;;;;;;;7.00;6.00;;;;;9.74;71.80;102109.91;6332606;22;45635;-74
2023/01/03 08:17:57;;;;;;;;;5.50;3.00;;;;;9.76;71.98;102128.19;6333708;22;45565;-77
2023/01/03 08:20:22;;;;;;;;;6.00;5.00;;;;;9.75;71.81;102129.09;6334264;22;45601;-74
2023/01/03 08:22:47;;;;;;;;;7.75;5.75;;;;;9.75;71.93;102136.94;6333919;22;46359;-74
2023/01/03 08:25:13;;;;;;;;;7.00;6.00;;;;;9.77;71.75;102129.88;6332883;22;46298;-74
2023/01/03 08:27:38;;;;;;;;;6.00;5.00;;;;;9.80;71.82;102134.97;6333412;22;45586;-73
2023/01/03 08:30:04;;;;;;;;;8.00;6.00;;;;;9.79;71.68;102146.34;6333719;22;45784;-74
2023/01/03 08:32:32;;;;;;;;;7.00;7.00;;;;;9.83;71.71;102140.91;6333151;22;46274;-75
2023/01/03 08:34:58;;;;;;;;;8.25;6.25;;;;;9.85;71.83;102135.63;6334147;22;45980;-74
2023/01/03 08:37:26;;;;;;;;;7.25;6.00;;;;;9.85;72.07;102140.84;6334422;22;45652;-72
2023/01/03 08:39:57;;;;;;;;;11.25;8.50;;;;;9.85;71.31;102138.25;6333488;22;45473;-75
2023/01/03 08:42:24;;;;;;;;;7.75;7.25;;;;;9.88;71.55;102148.59;6334140;22;46663;-74
2023/01/03 08:44:56;;;;;;;;;8.75;6.75;;;;;9.87;71.71;102147.75;6333592;22;47159;-74
2023/01/03 08:47:22;;;;;;;;;10.00;8.00;;;;;9.88;71.64;102148.59;6334406;22;45934;-74
2023/01/03 08:49:47;;;;;;;;;9.00;6.50;;;;;9.87;71.76;102146.88;6334425;22;45607;-74
2023/01/03 08:52:13;;;;;;;;;7.50;5.00;;;;;9.87;71.79;102144.28;6333360;22;47340;-74
2023/01/03 08:54:38;;;;;;;;;6.50;6.00;;;;;9.86;71.63;102146.03;6334325;22;46243;-75
2023/01/03 08:57:04;;;;;;;;;7.00;6.00;;;;;9.89;71.64;102148.50;6334579;22;45509;-74
2023/01/03 09:02:51;;;;;;;;;9.00;7.50;;;;;9.88;71.61;102140.75;6333742;22;45610;-73
2023/01/03 09:05:16;;;;;;;;;7.50;6.00;;;;;9.89;71.45;102142.41;6333533;22;45580;-74
2023/01/03 09:07:42;;;;;;;;;8.75;6.50;;;;;9.92;71.51;102143.16;6333766;22;45550;-75
2023/01/03 09:10:08;;;;;;;;;8.25;8.00;;;;;9.95;71.48;102156.09;6334430;22;45521;-72
2023/01/03 09:12:33;;;;;;;;;10.75;8.25;;;;;9.97;71.46;102159.50;6333930;22;46115;-74
2023/01/03 09:14:59;;;;;;;;;10.75;7.50;;;;;9.97;71.52;102159.50;6333757;22;45840;-73
2023/01/03 09:17:24;;;;;;;;;11.00;9.25;;;;;9.99;71.38;102148.94;6334271;22;45467;-75
2023/01/03 09:19:49;;;;;;;;;9.50;7.75;;;;;9.98;71.63;102155.97;6333499;22;45592;-75
2023/01/03 09:22:15;;;;;;;;;8.00;7.50;;;;;9.97;71.30;102150.81;6305072;22;47577;-73
2023/01/03 09:24:40;;;;;;;;;8.25;6.00;;;;;10.02;71.56;102168.00;6299845;22;47087;-73
2023/01/03 09:27:05;;;;;;;;;7.50;7.25;;;;;10.03;71.36;102168.88;6300224;22;45783;-74
2023/01/03 09:32:52;;;;;;;;;10.50;8.00;;;;;10.04;71.30;102160.91;6301813;22;45580;-74
2023/01/03 09:35:18;;;;;;;;;12.75;10.00;;;;;9.99;71.40;102151.56;6301470;22;45770;-74
2023/01/03 09:37:46;;;;;;;;;7.75;6.00;;;;;10.03;71.06;102147.91;6301801;22;45512;-74
2023/01/03 09:40:11;;;;;;;;;10.75;6.75;;;;;10.03;70.98;102154.00;6302590;22;45549;-74
2023/01/03 09:48:43;;;;;;;;;11.00;7.00;;;;;10.13;70.98;102156.22;6301925;22;45738;-74
2023/01/03 10:06:09;;;;;;;;;7.25;5.25;;;;;10.16;70.78;102170.03;6146405;22;45496;-74
2023/01/03 10:08:35;;;;;;;;;6.00;6.00;;;;;10.16;70.73;102170.03;6145936;23;46082;-74
2023/01/03 10:11:07;;;;;;;;;5.33;5.00;;;;;10.18;70.39;102178.69;6146742;23;45598;-75
2023/01/03 10:17:09;;;;;;;;;6.00;4.75;;;;;10.22;70.47;102179.41;6146597;23;46085;-74
2023/01/03 10:20:06;;;;;;;;;6.00;6.00;;;;;10.23;70.46;102187.19;6145753;23;45978;-74
2023/01/03 10:22:32;;;;;;;;;7.75;7.00;;;;;10.25;70.49;102182.75;6146460;23;45535;-74
2023/01/03 10:25:04;;;;;;;;;5.25;5.25;;;;;10.27;70.47;102183.50;6146504;23;45737;-76
2023/01/03 10:27:33;;;;;;;;;7.25;7.00;;;;;10.27;70.43;102188.75;6147467;23;46573;-75
2023/01/03 10:33:36;;;;;;;;;6.75;5.50;;;;;10.33;70.46;102193.72;6147431;23;45470;-73
2023/01/03 10:36:01;;;;;;;;;5.50;4.00;;;;;10.34;70.33;102189.34;6147388;23;45873;-75
2023/01/03 10:38:28;;;;;;;;;8.00;4.25;;;;;10.33;70.36;102182.38;6146794;23;47214;-76
2023/01/03 10:40:57;;;;;;;;;4.25;4.25;;;;;10.35;70.47;102191.03;6163365;22;45948;-76
2023/01/03 10:43:28;;;;;;;;;4.00;4.00;;;;;10.40;70.33;102191.69;6302938;22;45522;-74
2023/01/03 10:46:03;;;;;;;;;6.00;3.00;;;;;10.42;70.17;102189.81;6303580;22;45580;-74
2023/01/03 10:48:38;;;;;;;;;6.75;3.75;;;;;10.42;70.18;102187.22;6302402;22;47345;-73
2023/01/03 10:51:19;;;;;;;;;4.00;4.00;;;;;10.43;70.07;102175.81;6302555;22;47148;-74
2023/01/03 10:53:45;;;;;;;;;1.50;0.00;;;;;10.51;70.02;102178.94;6300969;22;45708;-74
2023/01/03 10:56:15;;;;;;;;;6.00;3.25;;;;;10.53;69.96;102180.56;6301245;22;45513;-75
2023/01/03 10:58:40;;;;;;;;;3.75;3.75;;;;;10.53;69.85;102175.31;6302690;22;45517;-75
2023/01/03 11:01:10;;;;;;;;;3.00;3.00;;;;;10.58;69.93;102179.53;6302339;22;46964;-73
2023/01/03 11:03:38;;;;;;;;;5.75;3.50;;;;;10.61;69.88;102182.00;6303128;22;45540;-74
2023/01/03 11:06:04;;;;;;;;;5.00;5.00;;;;;10.61;69.73;102185.47;6303151;22;45383;-72
2023/01/03 11:08:45;;;;;;;;;4.67;2.33;;;;;10.64;69.67;102181.84;6301187;22;46698;-72
2023/01/03 11:11:32;;;;;;;;;6.00;4.50;;;;;10.63;69.64;102173.16;6302317;22;46158;-74
2023/01/03 11:14:24;;;;;;;;;4.75;4.25;;;;;10.66;69.84;102174.75;6302962;22;45670;-73
2023/01/03 11:16:58;;;;;;;;;6.25;4.00;;;;;10.69;69.75;102179.88;6303014;22;45504;-73
2023/01/03 11:19:32;;;;;;;;;9.75;6.50;;;;;10.71;69.67;102176.25;6302508;22;45655;-71
2023/01/03 11:22:42;;;;;;;;;4.50;4.00;;;;;10.74;69.39;102172.66;6302661;22;45923;-73
2023/01/03 11:25:38;;;;;;;;;4.00;3.25;;;;;10.76;69.60;102174.25;6316869;22;45448;-74
2023/01/03 11:28:20;;;;;;;;;5.25;3.25;;;;;10.78;69.61;102171.59;6334116;22;45655;-74
2023/01/03 11:30:52;;;;;;;;;6.25;5.00;;;;;10.78;69.50;102164.56;6334233;22;46559;-73
2023/01/03 11:33:21;;;;;;;;;4.25;4.25;;;;;10.80;69.37;102161.84;6333809;22;46038;-73
2023/01/03 11:36:04;;;;;;;;;4.50;4.25;;;;;10.81;69.46;102156.53;6333873;22;45501;-71
2023/01/03 11:38:45;;;;;;;;;6.25;5.50;;;;;10.80;69.40;102161.84;6333995;22;45631;-71
2023/01/03 11:41:46;;;;;;;;;7.00;4.50;;;;;10.81;69.40;102153.06;6333670;22;47049;-73
2023/01/03 11:48:02;;;;;;;;;6.50;5.00;;;;;10.86;69.22;102151.09;6334259;22;45462;-74
2023/01/03 11:50:36;;;;;;;;;7.25;4.75;;;;;10.86;69.31;102146.69;6176982;23;45751;-72
2023/01/03 11:53:11;;;;;;;;;6.25;5.00;;;;;10.82;69.18;102149.53;6176815;23;46920;-71
2023/01/03 11:55:53;;;;;;;;;6.00;4.50;;;;;10.79;69.26;102137.44;6177342;23;46097;-70
2023/01/03 11:58:39;;;;;;;;;6.00;4.50;;;;;10.88;68.98;102150.09;6153620;23;45503;-73
2023/01/03 12:04:33;;;;;;;;;4.25;4.25;;;;;10.87;69.18;102137.91;6176908;23;46003;-71
2023/01/03 12:07:14;;;;;;;;;5.75;4.25;;;;;10.89;69.04;102132.59;6176863;23;46154;-72
2023/01/03 12:10:09;;;;;;;;;4.50;3.75;;;;;10.90;68.86;102129.88;6176694;23;45498;-76
2023/01/03 12:13:11;;;;;;;;;2.25;2.25;;;;;10.94;69.01;102126.22;6151584;23;45461;-72
2023/01/03 12:16:03;;;;;;;;;3.00;3.00;;;;;10.94;68.87;102123.59;6175989;23;46503;-72
2023/01/03 12:18:40;;;;;;;;;3.00;3.00;;;;;10.96;68.79;102120.06;6176941;23;45523;-76
2023/01/03 12:21:17;;;;;;;;;4.00;3.75;;;;;10.98;68.88;102119.03;6176644;23;45612;-74
2023/01/03 12:24:01;;;;;;;;;3.75;3.00;;;;;11.01;68.76;102124.16;6176159;23;45601;-73
2023/01/03 12:26:29;;;;;;;;;2.75;2.50;;;;;11.01;68.75;102108.41;6200433;22;48939;-76
2023/01/03 12:29:07;;;;;;;;;3.00;2.00;;;;;11.05;68.87;102114.34;6333416;22;46023;-75
2023/01/03 12:31:42;;;;;;;;;3.00;2.00;;;;;11.06;68.77;102116.06;6305244;22;45469;-72
2023/01/03 12:34:16;;;;;;;;;3.00;3.00;;;;;11.08;68.83;102111.56;6334009;22;45467;-73
2023/01/03 12:36:52;;;;;;;;;6.00;2.25;;;;;11.10;68.85;102114.97;6333534;22;46358;-72
2023/01/03 12:39:33;;;;;;;;;6.25;3.25;;;;;11.12;68.78;102116.56;6332988;22;45713;-76
2023/01/03 12:42:08;;;;;;;;;4.50;3.50;;;;;11.13;68.82;102113.03;6334064;22;45705;-75
2023/01/03 12:48:06;;;;;;;;;6.50;4.00;;;;;11.25;68.74;102104.56;6333593;22;45586;-73
2023/01/03 12:50:35;;;;;;;;;4.00;4.00;;;;;11.29;68.56;102102.63;6332771;22;47021;-74
2023/01/03 12:53:15;;;;;;;;;3.25;3.00;;;;;11.32;68.53;102107.75;6333906;22;45807;-75
2023/01/03 12:56:12;;;;;;;;;4.50;4.00;;;;;11.33;68.51;102091.94;6334706;22;45494;-73
2023/01/03 12:58:44;;;;;;;;;6.00;4.00;;;;;11.38;68.56;102093.47;6334005;22;46393;-76
2023/01/03 13:04:37;;;;;;;;;3.50;2.75;;;;;11.44;68.48;102085.28;6333886;22;45672;-73
2023/01/03 13:07:23;;;;;;;;;3.25;2.50;;;;;11.46;68.42;102083.41;6334314;22;45767;-75
2023/01/03 13:09:56;;;;;;;;;3.75;3.00;;;;;11.47;68.44;102067.59;6333126;22;46444;-71
2023/01/03 13:12:27;;;;;;;;;3.00;3.00;;;;;11.50;68.35;102067.41;6333314;22;46218;-73
2023/01/03 13:15:02;;;;;;;;;3.00;3.00;;;;;11.48;68.34;102058.81;6333362;22;45715;-75
2023/01/03 13:17:30;;;;;;;;;3.00;2.75;;;;;11.53;68.17;102061.19;6333427;22;45520;-73
2023/01/03 13:20:29;;;;;;;;;2.50;2.00;;;;;11.54;68.25;102062.88;6333690;22;47064;-71
2023/01/03 13:22:58;;;;;;;;;2.00;2.00;;;;;11.55;68.41;102061.97;6333829;22;45843;-73
2023/01/03 13:25:39;;;;;;;;;2.00;2.00;;;;;11.57;68.22;102065.34;6299804;22;45596;-73
2023/01/03 13:28:13;;;;;;;;;3.25;3.00;;;;;11.58;68.33;102064.41;6301995;22;45873;-73